Jacksonville International Airport
KJAX : now visible

Airfield :











YOU CAN JOIN US ON...

 
LOGIN :

Register | Disclaimer

   EN    FR    IT 

 









Legend :    VFR   Marginal VFR   IFR   Intensive IFR   Very Intensive IFR
Visi :
Ceiling :
>= 8 km
>= 3000ft
5 to 8 km
1000 to 3000 ft
1500m to 5 km
500 to 1000 ft
800 to 1500m
200 to 500 ft
< 800m
< 200 ft
Symbols :   Thunderstorms  Fog  Heavy snow  Heavy precipitations  Wind > 20 kt






- Airport Elevation : 30 ft
- IATA code : JAX


KJAX - Jacksonville International

CURRENT METAR :
  • 291356Z 01004KT 10SM BKN140 BKN250 09/06 A3003 RMK AO2 SLP168 T00890056

EXPIRED METARs :
  • 291256Z 00000KT 10SM FEW120 BKN220 04/02 A3001 RMK AO2 SLP164 T00390022
  • 291156Z 00000KT 10SM CLR 03/01 A3001 RMK AO2 SLP161 T00280011 10050 20022 55001 $

TAF KJAX
Valid from the 29 at 12:00 until the 30 at 12:00 UTC


291120Z 2912/3012 00000KT P6SM SKC
FM291500 06005KT P6SM BKN100
FM292000 07007KT P6SM -DZ SCT040 OVC060
FM292200 05005KT 6SM -RA BR SCT010 OVC040
FM300300 03006KT 2SM RA BR BKN004 OVC008
FM301000 36009KT P6SM BKN005



MET'MAP, your aeronautical weather chart ! - Copyright ORBIFLY December 2007 - Disclaimer

ORBIFLY MET'MAP TEAM :

Programming & Development : Alexandra Zaïnal
Concept & original design : Baudouin d'Aumeries
Assistance for programming : Marc-Olivier Méhu
Technical & hardware support : Manuel Goepfert

Contact : metmap@orbifly.com




SOURCES & CREDITS :

   NOAA       Earth
Advisory